createdAt,value
2022-11-10T07:49:20.152Z,146.25
2022-11-10T07:50:19.915Z,140.62
2022-11-10T07:51:20.808Z,135.00
2022-11-10T07:52:19.928Z,123.75
2022-11-10T07:53:21.832Z,118.12
2022-11-10T07:55:45.236Z,123.75
2022-11-10T07:58:18.866Z,129.38
2022-11-10T08:01:21.444Z,118.12
2022-11-10T08:02:29.151Z,118.12
2022-11-10T08:03:30.038Z,118.12
2022-11-10T08:04:30.016Z,118.12
2022-11-10T08:05:29.959Z,118.12
2022-11-10T08:06:33.511Z,123.75
2022-11-10T08:08:14.523Z,135.00
2022-11-10T08:11:37.210Z,180.00
2022-11-10T08:12:45.259Z,191.25
2022-11-10T08:14:47.564Z,163.12
2022-11-10T08:16:57.761Z,163.12
2022-11-10T08:17:57.909Z,163.12
2022-11-10T08:19:06.468Z,174.38
2022-11-10T08:21:08.736Z,185.62
2022-11-10T08:22:18.365Z,185.62
2022-11-10T08:25:33.206Z,168.75
2022-11-10T08:27:40.961Z,157.50
2022-11-10T08:29:52.188Z,174.38
2022-11-10T08:30:52.085Z,168.75
2022-11-10T08:33:03.454Z,180.00
2022-11-10T08:34:11.010Z,174.38
2022-11-10T08:36:13.830Z,168.75
2022-11-10T08:37:13.710Z,157.50
2022-11-10T08:38:22.374Z,151.88
2022-11-10T08:40:25.123Z,146.25
2022-11-10T08:41:25.040Z,146.25
2022-11-10T08:42:33.919Z,146.25
2022-11-10T08:44:35.570Z,140.62
2022-11-10T08:45:35.369Z,146.25
2022-11-10T08:46:35.492Z,146.25
2022-11-10T08:48:46.757Z,140.62
2022-11-10T08:49:57.329Z,146.25
2022-11-10T08:50:55.236Z,140.62
2022-11-10T08:52:58.029Z,146.25
2022-11-10T08:55:08.313Z,140.62
2022-11-10T08:56:08.285Z,140.62
2022-11-10T08:57:08.237Z,146.25
2022-11-10T08:58:08.224Z,140.62
2022-11-10T08:59:08.196Z,146.25
2022-11-10T09:00:08.248Z,151.88
2022-11-10T09:01:15.845Z,157.50
2022-11-10T09:02:08.215Z,168.75
2022-11-10T09:03:08.293Z,168.75
2022-11-10T09:04:08.263Z,157.50
2022-11-10T09:05:08.144Z,146.25
2022-11-10T09:06:08.121Z,146.25
2022-11-10T09:07:08.180Z,151.88
2022-11-10T09:08:08.130Z,146.25
2022-11-10T09:09:08.091Z,146.25
2022-11-10T09:10:08.414Z,146.25
2022-11-10T09:11:08.074Z,146.25
2022-11-10T09:12:08.113Z,140.62
2022-11-10T09:13:08.045Z,140.62
2022-11-10T09:14:08.051Z,140.62
2022-11-10T09:15:08.028Z,146.25
2022-11-10T09:16:08.032Z,151.88
2022-11-10T09:17:08.001Z,151.88
2022-11-10T09:18:08.007Z,157.50
2022-11-10T09:19:07.984Z,151.88
2022-11-10T09:20:08.110Z,157.50
2022-11-10T09:21:07.974Z,151.88
2022-11-10T09:22:16.192Z,146.25
2022-11-10T09:23:16.559Z,151.88
2022-11-10T09:24:17.572Z,163.12
2022-11-10T09:25:07.998Z,163.12
2022-11-10T09:26:16.547Z,163.12
2022-11-10T09:27:15.526Z,163.12
2022-11-10T09:28:07.964Z,168.75
2022-11-10T09:29:07.923Z,174.38
2022-11-10T09:30:10.641Z,174.38
2022-11-10T09:31:08.929Z,185.62
2022-11-10T09:32:15.453Z,191.25
2022-11-10T09:33:08.118Z,208.12
2022-11-10T09:34:07.855Z,225.00
2022-11-10T09:35:16.712Z,236.25
2022-11-10T09:36:07.866Z,230.62
2022-11-10T09:37:07.872Z,225.00
2022-11-10T09:38:15.376Z,213.75
2022-11-10T09:39:15.434Z,213.75
2022-11-10T09:40:12.641Z,208.12
2022-11-10T09:41:08.804Z,196.88
2022-11-10T09:42:07.740Z,185.62
2022-11-10T09:43:07.778Z,191.25
2022-11-10T09:44:07.738Z,185.62
2022-11-10T09:45:07.700Z,163.12
2022-11-10T09:46:07.703Z,151.88
2022-11-10T09:47:07.682Z,157.50
2022-11-10T09:48:07.662Z,163.12
2022-11-10T09:49:07.682Z,180.00
2022-11-10T09:50:07.648Z,185.62
2022-11-10T09:51:07.650Z,180.00
2022-11-10T09:52:15.225Z,174.38
2022-11-10T09:53:16.197Z,180.00
2022-11-10T09:55:17.981Z,168.75
2022-11-10T09:57:28.349Z,180.00
2022-11-10T09:58:37.981Z,180.00
2022-11-10T09:59:28.290Z,174.38
2022-11-10T10:00:35.842Z,163.12
2022-11-10T10:01:37.039Z,163.12
2022-11-10T10:02:35.874Z,157.50
2022-11-10T10:04:51.884Z,151.88
2022-11-10T10:07:05.325Z,151.88
2022-11-10T10:07:58.162Z,151.88
2022-11-10T10:08:56.603Z,146.25
2022-11-10T10:09:56.440Z,146.25
2022-11-10T10:10:47.893Z,146.25
2022-11-10T10:11:56.663Z,146.25
2022-11-10T10:12:55.395Z,146.25
2022-11-10T10:13:47.834Z,146.25
2022-11-10T10:14:47.897Z,146.25
2022-11-10T10:15:55.407Z,146.25
2022-11-10T10:16:47.821Z,146.25
2022-11-10T10:17:56.353Z,146.25
2022-11-10T10:18:55.350Z,146.25
2022-11-10T10:19:55.297Z,151.88
2022-11-10T10:20:55.609Z,146.25
2022-11-10T10:21:47.780Z,151.88
2022-11-10T10:22:56.401Z,146.25
2022-11-10T10:24:09.445Z,146.25
2022-11-10T10:24:48.781Z,146.25
2022-11-10T10:25:55.313Z,146.25
2022-11-10T10:26:47.752Z,146.25
2022-11-10T10:27:55.246Z,140.62
2022-11-10T10:28:56.531Z,151.88
2022-11-10T10:29:55.225Z,151.88
2022-11-10T10:30:56.285Z,151.88
2022-11-10T10:31:55.197Z,157.50
2022-11-10T10:33:58.047Z,157.50
2022-11-10T10:35:05.572Z,157.50
2022-11-10T10:36:05.524Z,157.50
2022-11-10T10:38:09.367Z,157.50
2022-11-10T10:39:18.015Z,163.12
2022-11-10T10:40:16.853Z,163.12
2022-11-10T10:41:09.312Z,163.12
2022-11-10T10:42:09.275Z,157.50
2022-11-10T10:43:16.837Z,157.50
2022-11-10T10:44:19.072Z,157.50
2022-11-10T10:45:09.282Z,146.25
2022-11-10T10:46:09.282Z,151.88
2022-11-10T10:47:16.801Z,157.50
2022-11-10T10:50:34.892Z,151.88
2022-11-10T10:51:34.790Z,151.88
2022-11-10T10:52:34.740Z,151.88
2022-11-10T10:53:42.376Z,151.88
2022-11-10T10:54:34.830Z,140.62
2022-11-10T10:55:34.748Z,151.88
2022-11-10T10:56:34.710Z,151.88
2022-11-10T10:57:42.238Z,168.75
2022-11-10T10:58:34.727Z,157.50
2022-11-10T10:59:34.674Z,151.88
2022-11-10T11:00:34.672Z,151.88
2022-11-10T11:01:34.739Z,151.88
2022-11-10T11:02:43.271Z,151.88
2022-11-10T11:04:45.031Z,151.88
2022-11-10T11:05:45.065Z,146.25
2022-11-10T11:06:54.856Z,146.25
2022-11-10T11:07:45.000Z,151.88
2022-11-10T11:08:58.188Z,163.12
2022-11-10T11:10:55.350Z,168.75
2022-11-10T11:12:03.983Z,168.75
2022-11-10T11:13:02.823Z,180.00
2022-11-10T11:14:03.131Z,202.50
2022-11-10T11:15:03.833Z,202.50
2022-11-10T11:16:03.819Z,196.88
2022-11-10T11:17:05.151Z,191.25
2022-11-10T11:18:02.817Z,174.38
2022-11-10T11:19:03.460Z,174.38
2022-11-10T11:21:06.752Z,174.38
2022-11-10T11:22:16.256Z,168.75
2022-11-10T11:24:16.865Z,163.12
2022-11-10T11:26:27.189Z,157.50
2022-11-10T11:27:34.721Z,163.12
2022-11-10T11:28:36.904Z,163.12
2022-11-10T11:29:34.711Z,168.75
2022-11-10T11:30:34.713Z,174.38
2022-11-10T11:31:27.091Z,185.62
2022-11-10T11:32:27.131Z,208.12
2022-11-10T11:33:27.047Z,225.00
2022-11-10T11:34:36.037Z,230.62
2022-11-10T11:35:34.594Z,213.75
2022-11-10T11:37:37.422Z,202.50
2022-11-10T11:39:46.745Z,213.75
2022-11-10T11:40:54.261Z,230.62
2022-11-10T11:41:46.775Z,253.12
2022-11-10T11:42:54.259Z,247.50
2022-11-10T11:43:55.252Z,230.62
2022-11-10T11:44:46.730Z,241.88
2022-11-10T11:45:54.154Z,270.00
2022-11-10T11:46:54.195Z,286.88
2022-11-10T11:47:55.271Z,281.25
2022-11-10T11:48:56.613Z,292.50
2022-11-10T11:49:54.168Z,298.12
2022-11-10T11:50:54.193Z,292.50
2022-11-10T11:51:54.168Z,298.12
2022-11-10T11:52:57.302Z,309.38
2022-11-10T11:53:54.266Z,320.62
2022-11-10T11:55:57.929Z,320.62
2022-11-10T11:56:58.124Z,303.75
2022-11-10T11:58:06.401Z,286.88
2022-11-10T11:59:05.396Z,286.88
2022-11-10T12:00:05.391Z,298.12
2022-11-10T12:00:57.934Z,315.00
2022-11-10T12:02:06.674Z,320.62
2022-11-10T12:02:57.844Z,309.38
2022-11-10T12:03:57.783Z,286.88
2022-11-10T12:04:57.746Z,292.50
2022-11-10T12:06:05.307Z,298.12
2022-11-10T12:06:57.847Z,264.38
2022-11-10T12:07:57.806Z,270.00
2022-11-10T12:09:05.950Z,236.25
2022-11-10T12:10:05.290Z,208.12
2022-11-10T12:11:05.325Z,264.38
2022-11-10T14:48:45.146Z,61.88
2022-11-10T14:49:52.638Z,61.88
2022-11-10T14:50:54.753Z,61.88
2022-11-10T14:51:45.056Z,56.25
2022-11-10T14:52:52.581Z,56.25
2022-11-10T14:53:52.573Z,56.25
2022-11-10T14:54:52.574Z,56.25
2022-11-10T14:55:45.015Z,56.25
2022-11-10T14:56:44.986Z,50.62
2022-11-10T14:57:52.516Z,50.62
2022-11-10T14:58:44.944Z,50.62
2022-11-10T14:59:44.931Z,45.00
2022-11-10T15:00:52.498Z,45.00
2022-11-10T15:01:53.993Z,39.38
2022-11-10T15:02:52.469Z,39.38
2022-11-10T15:03:53.551Z,39.38
2022-11-10T15:04:52.480Z,33.75
2022-11-10T15:05:44.908Z,33.75
2022-11-10T15:06:52.498Z,33.75
2022-11-10T15:07:44.913Z,28.12
2022-11-10T15:08:44.835Z,28.12
2022-11-10T15:09:52.400Z,22.50
2022-11-10T15:10:52.387Z,22.50
2022-11-10T15:11:52.367Z,22.50
2022-11-10T15:12:44.817Z,16.88
2022-11-10T15:13:44.802Z,16.88
2022-11-10T15:14:44.767Z,16.88
2022-11-10T15:15:44.809Z,16.88
2022-11-10T15:16:52.342Z,11.25
2022-11-10T15:17:53.832Z,11.25
2022-11-10T15:18:44.768Z,11.25
2022-11-10T15:19:52.333Z,11.25
2022-11-10T15:20:44.787Z,11.25
2022-11-10T15:21:53.370Z,11.25
2022-11-10T15:22:52.268Z,5.62
2022-11-10T15:23:44.692Z,5.62
2022-11-10T15:24:53.289Z,5.62
2022-11-10T15:26:55.050Z,5.62
2022-11-10T15:28:02.596Z,5.62
2022-11-10T15:29:03.766Z,5.62
2022-11-10T15:29:55.000Z,5.62
2022-11-10T15:30:55.000Z,0.00
2022-11-10T15:33:05.295Z,0.00
2022-11-10T15:34:13.952Z,0.00
2022-11-10T15:35:12.881Z,0.00
2022-11-10T15:36:05.271Z,0.00
2022-11-10T15:37:05.237Z,0.00
2022-11-10T15:38:05.174Z,0.00
2022-11-10T15:39:05.204Z,0.00
2022-11-10T15:40:05.204Z,0.00
2022-11-10T15:41:05.137Z,0.00
2022-11-10T15:42:05.129Z,0.00
2022-11-10T15:43:05.107Z,0.00
2022-11-10T15:44:13.020Z,0.00
2022-11-10T15:45:05.171Z,0.00
2022-11-10T15:46:17.791Z,0.00
2022-11-10T15:48:15.527Z,0.00
2022-11-10T15:49:23.053Z,0.00
2022-11-10T15:50:26.229Z,0.00
2022-11-10T15:51:15.475Z,0.00
2022-11-10T15:53:25.772Z,0.00
2022-11-10T15:54:25.718Z,0.00
2022-11-10T15:55:25.695Z,0.00
2022-11-10T15:56:25.738Z,0.00
2022-11-10T15:57:33.331Z,0.00
2022-11-10T15:58:34.240Z,0.00
2022-11-10T15:59:33.272Z,0.00
2022-11-10T16:00:35.536Z,0.00
2022-11-10T16:01:25.751Z,0.00
2022-11-10T16:02:33.243Z,0.00
2022-11-10T16:03:25.675Z,0.00
2022-11-10T16:04:33.213Z,0.00
2022-11-10T16:05:33.262Z,0.00
2022-11-10T16:06:35.705Z,0.00
2022-11-10T16:07:33.160Z,0.00
2022-11-10T16:08:34.231Z,0.00
2022-11-10T16:09:33.131Z,0.00
2022-11-10T16:10:33.122Z,0.00
2022-11-10T16:11:33.134Z,0.00
2022-11-10T16:12:35.367Z,0.00
2022-11-10T16:13:33.082Z,0.00
2022-11-10T16:14:25.539Z,0.00
2022-11-10T16:15:25.532Z,0.00
2022-11-10T16:17:35.903Z,0.00
2022-11-10T16:18:44.045Z,0.00
2022-11-10T16:19:35.838Z,0.00
2022-11-10T16:20:35.872Z,0.00
2022-11-10T16:21:35.797Z,0.00
2022-11-10T16:22:35.741Z,0.00
2022-11-10T16:23:35.765Z,0.00
2022-11-10T16:24:35.718Z,0.00
2022-11-10T16:25:35.706Z,0.00
2022-11-10T16:26:35.703Z,0.00
2022-11-10T16:27:35.684Z,0.00
2022-11-10T16:28:44.535Z,0.00
2022-11-10T16:29:43.251Z,0.00
2022-11-10T16:30:43.247Z,0.00
2022-11-10T16:31:43.227Z,0.00
2022-11-10T16:32:43.244Z,0.00
2022-11-10T16:33:35.698Z,0.00
2022-11-10T16:34:35.704Z,0.00
2022-11-10T16:35:35.616Z,0.00
2022-11-10T16:36:35.703Z,0.00
2022-11-10T16:37:35.574Z,0.00
2022-11-10T16:38:35.569Z,0.00
2022-11-10T16:39:35.564Z,0.00
2022-11-10T16:40:35.590Z,0.00
2022-11-10T16:41:35.530Z,0.00
2022-11-10T16:42:35.534Z,0.00
2022-11-10T16:43:35.511Z,0.00
2022-11-10T16:44:38.759Z,0.00
2022-11-10T16:45:36.504Z,0.00
2022-11-10T16:46:35.491Z,0.00
2022-11-10T16:47:35.466Z,0.00
2022-11-10T16:48:35.497Z,0.00
2022-11-10T16:49:35.452Z,0.00
2022-11-10T16:50:35.446Z,0.00
2022-11-10T16:51:35.434Z,0.00
2022-11-10T16:52:35.518Z,0.00
2022-11-10T16:53:35.400Z,0.00
2022-11-10T16:54:35.391Z,0.00
2022-11-10T16:55:35.425Z,0.00
2022-11-10T16:56:35.387Z,0.00
2022-11-10T16:57:39.796Z,0.00
2022-11-10T16:58:35.347Z,0.00
2022-11-10T16:59:35.341Z,0.00
2022-11-10T17:00:35.334Z,0.00
2022-11-10T17:01:35.428Z,0.00
2022-11-10T17:02:35.310Z,0.00
2022-11-10T17:03:35.295Z,0.00
2022-11-10T17:04:35.280Z,0.00
2022-11-10T17:05:35.271Z,0.00
2022-11-10T17:06:35.319Z,0.00
2022-11-10T17:07:35.243Z,0.00
2022-11-10T17:08:35.345Z,0.00
2022-11-10T17:09:35.227Z,0.00
2022-11-10T17:10:35.216Z,0.00
2022-11-10T17:11:35.208Z,0.00
2022-11-10T17:12:35.218Z,0.00
2022-11-10T17:13:35.195Z,0.00
2022-11-10T17:14:35.185Z,0.00
2022-11-10T17:15:35.164Z,0.00
2022-11-10T17:16:35.157Z,0.00
2022-11-10T17:17:35.139Z,0.00
2022-11-10T17:18:35.161Z,0.00
2022-11-10T17:19:35.135Z,0.00
2022-11-10T17:20:35.119Z,0.00
2022-11-10T17:21:35.122Z,0.00
2022-11-10T17:22:35.091Z,0.00
2022-11-10T17:23:35.151Z,0.00
2022-11-10T17:24:35.190Z,0.00
2022-11-10T17:25:35.103Z,0.00
2022-11-10T17:26:35.048Z,0.00
2022-11-10T17:27:37.950Z,0.00
2022-11-10T17:28:35.057Z,0.00
2022-11-10T17:29:35.008Z,0.00
2022-11-10T17:30:35.016Z,0.00
2022-11-10T17:31:34.997Z,0.00
2022-11-10T17:33:03.025Z,0.00
2022-11-10T17:33:35.982Z,0.00
2022-11-10T17:34:34.961Z,0.00
2022-11-10T17:35:40.105Z,0.00
2022-11-10T17:36:35.945Z,0.00
2022-11-10T17:37:34.937Z,0.00
2022-11-10T17:38:34.923Z,0.00
2022-11-10T17:39:34.915Z,0.00
2022-11-10T17:40:35.012Z,0.00
2022-11-10T17:41:34.884Z,0.00
2022-11-10T17:42:34.876Z,0.00
2022-11-10T17:43:34.867Z,0.00
2022-11-10T17:44:34.855Z,0.00
2022-11-10T17:45:34.868Z,0.00
2022-11-10T17:46:34.838Z,0.00
2022-11-10T17:47:34.833Z,0.00
2022-11-10T17:48:34.819Z,0.00
2022-11-10T17:49:34.799Z,0.00
2022-11-10T17:50:34.802Z,0.00
2022-11-10T17:51:34.771Z,0.00
2022-11-10T17:52:34.760Z,0.00
2022-11-10T17:53:34.761Z,0.00
2022-11-10T17:54:34.741Z,0.00
2022-11-10T17:55:34.779Z,0.00
2022-11-10T17:56:34.836Z,0.00
2022-11-10T17:57:34.712Z,0.00
2022-11-10T17:58:34.717Z,0.00
2022-11-10T17:59:34.697Z,0.00
2022-11-10T18:00:34.695Z,0.00
2022-11-10T18:01:34.724Z,0.00
2022-11-10T18:02:34.663Z,0.00
2022-11-10T18:03:34.656Z,0.00
2022-11-10T18:04:34.640Z,0.00
2022-11-10T18:05:34.640Z,0.00
2022-11-10T18:06:43.769Z,0.00
2022-11-10T18:07:42.173Z,0.00
2022-11-10T18:08:34.704Z,0.00
2022-11-10T18:09:34.649Z,0.00
2022-11-10T18:10:34.592Z,0.00
2022-11-10T18:11:34.559Z,0.00
2022-11-10T18:12:34.703Z,0.00
2022-11-10T18:13:34.557Z,0.00
2022-11-10T18:14:34.541Z,0.00
2022-11-10T18:15:34.525Z,0.00
2022-11-10T18:16:34.534Z,0.00
2022-11-10T18:17:34.505Z,0.00
2022-11-10T18:18:34.528Z,0.00
2022-11-10T18:19:34.495Z,0.00
2022-11-10T18:20:42.060Z,0.00
2022-11-10T18:21:34.521Z,0.00
2022-11-10T18:22:34.490Z,0.00
2022-11-10T18:23:34.436Z,0.00
2022-11-10T18:24:34.428Z,0.00
2022-11-10T18:25:34.413Z,0.00
2022-11-10T18:26:34.411Z,0.00
2022-11-10T18:27:34.412Z,0.00
2022-11-10T18:28:34.493Z,0.00
2022-11-10T18:29:34.375Z,0.00
2022-11-10T18:30:35.397Z,0.00
2022-11-10T18:31:34.359Z,0.00
2022-11-10T18:32:34.345Z,0.00
2022-11-10T18:33:34.333Z,0.00
2022-11-10T18:34:34.320Z,0.00
2022-11-10T18:35:34.312Z,0.00
2022-11-10T18:36:34.332Z,0.00
2022-11-10T18:37:38.780Z,0.00
2022-11-10T18:38:34.273Z,0.00
2022-11-10T18:39:34.258Z,0.00
2022-11-10T18:40:34.246Z,0.00
2022-11-10T18:41:34.239Z,0.00
2022-11-10T18:42:34.249Z,0.00
2022-11-10T18:43:34.225Z,0.00
2022-11-10T18:44:34.344Z,0.00
2022-11-10T18:45:34.238Z,0.00
2022-11-10T18:46:34.191Z,0.00
2022-11-10T18:47:34.197Z,0.00
2022-11-10T18:48:37.263Z,0.00
2022-11-10T18:49:34.170Z,0.00
2022-11-10T18:50:34.161Z,0.00
2022-11-10T18:51:34.127Z,0.00
2022-11-10T18:52:34.128Z,0.00
2022-11-10T18:53:38.044Z,0.00
2022-11-10T18:54:34.112Z,0.00
2022-11-10T18:55:34.089Z,0.00
2022-11-10T18:56:34.098Z,0.00
2022-11-10T18:57:34.067Z,0.00
2022-11-10T18:58:34.094Z,0.00
2022-11-10T18:59:34.048Z,0.00
2022-11-10T19:00:34.156Z,0.00
2022-11-10T19:01:34.100Z,0.00
2022-11-10T19:02:34.023Z,0.00
2022-11-10T19:03:34.012Z,0.00
2022-11-10T19:04:34.005Z,0.00
2022-11-10T19:05:33.988Z,0.00
2022-11-10T19:06:34.028Z,0.00
2022-11-10T19:07:34.008Z,0.00
2022-11-10T19:08:33.951Z,0.00
2022-11-10T19:09:33.968Z,0.00
2022-11-10T19:10:42.567Z,0.00
2022-11-10T19:11:34.000Z,0.00
2022-11-10T19:12:33.959Z,0.00
2022-11-10T19:13:33.891Z,0.00
2022-11-10T19:14:34.005Z,0.00
2022-11-10T19:15:33.908Z,0.00
2022-11-10T19:16:33.993Z,0.00
2022-11-10T19:17:33.852Z,0.00
2022-11-10T19:18:33.829Z,0.00
2022-11-10T19:19:33.825Z,0.00
2022-11-10T19:20:33.849Z,0.00
2022-11-10T19:21:33.816Z,0.00
2022-11-10T19:22:33.802Z,0.00
2022-11-10T19:23:33.786Z,0.00
2022-11-10T19:24:53.771Z,0.00
2022-11-10T19:25:34.757Z,0.00
2022-11-10T19:26:33.758Z,0.00
2022-11-10T19:27:33.737Z,0.00
2022-11-10T19:28:33.734Z,0.00
2022-11-10T19:29:33.746Z,0.00
2022-11-10T19:30:33.704Z,0.00
2022-11-10T19:31:33.708Z,0.00
2022-11-10T19:32:34.488Z,0.00
2022-11-10T19:34:50.047Z,0.00
2022-11-10T19:35:49.955Z,0.00
2022-11-10T19:36:49.922Z,0.00
2022-11-10T19:37:49.921Z,0.00
2022-11-10T19:38:49.919Z,0.00
2022-11-10T19:39:49.936Z,0.00
2022-11-10T19:40:49.890Z,0.00
2022-11-10T19:41:49.891Z,0.00
2022-11-10T19:42:49.857Z,0.00
2022-11-10T19:43:49.844Z,0.00
2022-11-10T19:44:49.867Z,0.00
2022-11-10T19:45:49.820Z,0.00
2022-11-10T19:46:49.839Z,0.00
2022-11-10T19:47:49.920Z,0.00
2022-11-10T19:48:49.822Z,0.00
2022-11-10T19:49:49.791Z,0.00
2022-11-10T19:50:49.806Z,0.00
2022-11-10T19:51:49.752Z,0.00
2022-11-10T19:52:49.765Z,0.00
2022-11-10T19:53:49.729Z,0.00
2022-11-10T19:54:49.722Z,0.00
2022-11-10T19:55:49.719Z,0.00
2022-11-10T19:56:49.710Z,0.00
2022-11-10T19:57:49.720Z,0.00
2022-11-10T19:58:49.680Z,0.00
2022-11-10T19:59:49.673Z,0.00
2022-11-10T20:00:49.662Z,0.00
2022-11-10T20:01:49.697Z,0.00
2022-11-10T20:02:49.647Z,0.00
2022-11-10T20:03:49.750Z,0.00
2022-11-10T20:04:49.613Z,0.00
2022-11-10T20:05:49.610Z,0.00
2022-11-10T20:06:49.628Z,0.00
2022-11-10T20:07:49.599Z,0.00
2022-11-10T20:08:49.576Z,0.00
2022-11-10T20:09:49.576Z,0.00
2022-11-10T20:10:59.139Z,0.00
2022-11-10T20:11:57.131Z,0.00
2022-11-10T20:12:49.589Z,0.00
2022-11-10T20:13:57.135Z,0.00
2022-11-10T20:14:49.580Z,0.00
2022-11-10T20:15:49.525Z,0.00
2022-11-10T20:16:49.527Z,0.00
2022-11-10T20:17:49.474Z,0.00
2022-11-10T20:18:49.473Z,0.00
2022-11-10T20:19:49.568Z,0.00
2022-11-10T20:20:49.546Z,0.00
2022-11-10T20:21:49.448Z,0.00
2022-11-10T20:22:49.443Z,0.00
2022-11-10T20:23:49.442Z,0.00
2022-11-10T20:24:51.252Z,0.00
2022-11-10T20:25:49.405Z,0.00
2022-11-10T20:26:49.383Z,0.00
2022-11-10T20:27:49.379Z,0.00
2022-11-10T20:28:49.384Z,0.00
2022-11-10T20:29:49.365Z,0.00
2022-11-10T20:30:49.380Z,0.00
2022-11-10T20:31:49.327Z,0.00
2022-11-10T20:32:49.330Z,0.00
2022-11-10T20:33:49.336Z,0.00
2022-11-10T20:34:59.330Z,0.00
2022-11-10T20:35:49.344Z,0.00
2022-11-10T20:36:49.335Z,0.00
2022-11-10T20:37:49.271Z,0.00
2022-11-10T20:38:49.287Z,0.00
2022-11-10T20:39:49.261Z,0.00
2022-11-10T20:40:49.249Z,0.00
2022-11-10T20:41:49.239Z,0.00
2022-11-10T20:42:49.213Z,0.00
2022-11-10T20:43:49.246Z,0.00
2022-11-10T20:44:49.220Z,0.00
2022-11-10T20:45:49.182Z,0.00
2022-11-10T20:46:54.412Z,0.00
2022-11-10T20:47:50.219Z,0.00
2022-11-10T20:48:49.147Z,0.00
2022-11-10T20:49:49.154Z,0.00
2022-11-10T20:50:49.255Z,0.00
2022-11-10T20:51:49.152Z,0.00
2022-11-10T20:52:49.108Z,0.00
2022-11-10T20:53:49.100Z,0.00
2022-11-10T20:54:49.079Z,0.00
2022-11-10T20:55:53.855Z,0.00
2022-11-10T20:56:50.085Z,0.00
2022-11-10T20:57:49.061Z,0.00
2022-11-10T20:58:49.066Z,0.00
2022-11-10T20:59:49.037Z,0.00
2022-11-10T21:00:49.030Z,0.00
2022-11-10T21:01:49.037Z,0.00
2022-11-10T21:02:49.015Z,0.00
2022-11-10T21:03:49.062Z,0.00
2022-11-10T21:04:48.974Z,0.00
2022-11-10T21:05:48.988Z,0.00
2022-11-10T21:06:49.115Z,0.00
2022-11-10T21:07:48.978Z,0.00
2022-11-10T21:08:48.935Z,0.00
2022-11-10T21:09:57.755Z,0.00
2022-11-10T21:10:48.946Z,0.00
2022-11-10T21:11:48.943Z,0.00
2022-11-10T21:12:48.891Z,0.00
2022-11-10T21:13:48.930Z,0.00
2022-11-10T21:14:48.887Z,0.00
2022-11-10T21:15:48.888Z,0.00
2022-11-10T21:16:48.854Z,0.00
2022-11-10T21:17:48.835Z,0.00
2022-11-10T21:18:48.886Z,0.00
2022-11-10T21:19:48.819Z,0.00
2022-11-10T21:20:48.809Z,0.00
2022-11-10T21:21:48.795Z,0.00
2022-11-10T21:22:48.896Z,0.00
2022-11-10T21:23:48.807Z,0.00
2022-11-10T21:24:48.776Z,0.00
2022-11-10T21:25:48.752Z,0.00
2022-11-10T21:26:48.736Z,0.00
2022-11-10T21:27:48.729Z,0.00
2022-11-10T21:28:48.729Z,0.00
2022-11-10T21:29:48.724Z,0.00
2022-11-10T21:30:48.704Z,0.00
2022-11-10T21:31:48.691Z,0.00
2022-11-10T21:32:48.700Z,0.00
2022-11-10T21:33:48.672Z,0.00
2022-11-10T21:34:48.670Z,0.00
2022-11-10T21:35:48.647Z,0.00
2022-11-10T21:36:48.649Z,0.00
2022-11-10T21:37:48.637Z,0.00
2022-11-10T21:38:48.735Z,0.00
2022-11-10T21:39:48.606Z,0.00
2022-11-10T21:40:48.632Z,0.00
2022-11-10T21:41:48.581Z,0.00
2022-11-10T21:42:48.576Z,0.00
2022-11-10T21:43:48.591Z,0.00
2022-11-10T21:44:48.561Z,0.00
2022-11-10T21:45:48.555Z,0.00
2022-11-10T21:46:48.535Z,0.00
2022-11-10T21:47:48.545Z,0.00
2022-11-10T21:48:48.511Z,0.00
2022-11-10T21:49:48.495Z,0.00
2022-11-10T21:50:48.522Z,0.00
2022-11-10T21:51:48.470Z,0.00
2022-11-10T21:52:48.499Z,0.00
2022-11-10T21:53:48.469Z,0.00
2022-11-10T21:54:48.565Z,0.00
2022-11-10T21:55:48.441Z,0.00
2022-11-10T21:56:48.440Z,0.00
2022-11-10T21:57:48.415Z,0.00
2022-11-10T21:58:48.446Z,0.00
2022-11-10T21:59:48.431Z,0.00
2022-11-10T22:00:48.386Z,0.00
2022-11-10T22:01:48.488Z,0.00
2022-11-10T22:02:48.366Z,0.00
2022-11-10T22:03:48.357Z,0.00
2022-11-10T22:04:48.340Z,0.00
2022-11-10T22:05:48.380Z,0.00
2022-11-10T22:06:48.366Z,0.00
2022-11-10T22:07:48.320Z,0.00
2022-11-10T22:08:48.303Z,0.00
2022-11-10T22:09:48.288Z,0.00
2022-11-10T22:10:48.395Z,0.00
2022-11-10T22:11:48.256Z,0.00
2022-11-10T22:12:48.288Z,0.00
2022-11-10T22:13:48.237Z,0.00
2022-11-10T22:14:48.234Z,0.00
2022-11-10T22:15:48.213Z,0.00
2022-11-10T22:16:55.854Z,0.00
2022-11-10T22:17:56.859Z,0.00
2022-11-10T22:18:48.287Z,0.00
2022-11-10T22:19:48.228Z,0.00
2022-11-10T22:20:48.165Z,0.00
2022-11-10T22:21:48.213Z,0.00
2022-11-10T22:22:48.172Z,0.00
2022-11-10T22:23:48.148Z,0.00
2022-11-10T22:24:48.143Z,0.00
2022-11-10T22:25:48.107Z,0.00
2022-11-10T22:26:48.213Z,0.00
2022-11-10T22:27:48.089Z,0.00
2022-11-10T22:28:48.103Z,0.00
2022-11-10T22:29:55.637Z,0.00
2022-11-10T22:30:55.681Z,0.00
2022-11-10T22:32:58.447Z,0.00
2022-11-10T22:33:58.427Z,0.00
2022-11-10T22:35:08.074Z,0.00
2022-11-10T22:35:58.408Z,0.00
2022-11-10T22:36:58.364Z,0.00
2022-11-10T22:37:58.346Z,0.00
2022-11-10T22:39:03.174Z,0.00
2022-11-10T22:39:59.360Z,0.00
2022-11-10T22:40:58.285Z,0.00
2022-11-10T22:41:58.389Z,0.00
2022-11-10T22:42:58.267Z,0.00
2022-11-10T22:43:58.256Z,0.00
2022-11-10T22:44:58.247Z,0.00
2022-11-10T22:45:58.250Z,0.00
2022-11-10T22:46:58.240Z,0.00
2022-11-10T22:47:58.215Z,0.00
2022-11-10T22:48:58.199Z,0.00
2022-11-10T22:49:58.189Z,0.00
2022-11-10T22:50:58.211Z,0.00
2022-11-10T22:51:58.185Z,0.00
2022-11-10T22:53:05.785Z,0.00
2022-11-10T22:53:58.223Z,0.00
2022-11-10T22:54:58.196Z,0.00
2022-11-10T22:55:58.151Z,0.00
2022-11-10T22:56:58.132Z,0.00
2022-11-10T22:57:58.235Z,0.00
2022-11-10T22:59:00.072Z,0.00
2022-11-10T22:59:58.087Z,0.00
2022-11-10T23:00:58.091Z,0.00
2022-11-10T23:01:58.137Z,0.00
2022-11-10T23:02:58.058Z,0.00
2022-11-10T23:03:58.053Z,0.00
2022-11-10T23:04:58.036Z,0.00
2022-11-10T23:05:58.034Z,0.00
2022-11-10T23:06:58.082Z,0.00
2022-11-10T23:07:58.004Z,0.00
2022-11-10T23:08:57.999Z,0.00
2022-11-10T23:09:58.000Z,0.00
2022-11-10T23:10:57.987Z,0.00
2022-11-10T23:11:57.972Z,0.00
2022-11-10T23:12:57.948Z,0.00
2022-11-10T23:13:58.058Z,0.00
2022-11-10T23:14:57.944Z,0.00
2022-11-10T23:15:57.917Z,0.00
2022-11-10T23:16:57.914Z,0.00
2022-11-10T23:18:01.184Z,0.00
2022-11-10T23:18:58.906Z,0.00
2022-11-10T23:19:57.876Z,0.00
2022-11-10T23:20:57.873Z,0.00
2022-11-10T23:22:05.492Z,0.00
2022-11-10T23:22:57.902Z,0.00
2022-11-10T23:24:06.750Z,0.00
2022-11-10T23:25:05.507Z,0.00
2022-11-10T23:28:18.616Z,0.00
2022-11-10T23:29:27.293Z,0.00
2022-11-10T23:30:26.190Z,0.00
2022-11-10T23:31:26.131Z,0.00
2022-11-10T23:32:27.140Z,0.00
2022-11-10T23:33:18.532Z,0.00
2022-11-10T23:34:18.498Z,0.00
2022-11-10T23:35:18.467Z,0.00
2022-11-10T23:36:25.988Z,0.00
2022-11-10T23:37:18.460Z,0.00
2022-11-10T23:38:25.976Z,0.00
2022-11-10T23:39:18.437Z,0.00
2022-11-10T23:40:27.420Z,0.00
2022-11-10T23:41:26.978Z,0.00
2022-11-10T23:43:28.779Z,0.00
2022-11-10T23:44:36.338Z,0.00
2022-11-10T23:46:05.450Z,0.00
2022-11-10T23:46:36.288Z,0.00
2022-11-10T23:48:39.101Z,0.00
2022-11-10T23:49:39.057Z,0.00
2022-11-10T23:50:38.983Z,0.00
2022-11-10T23:51:46.536Z,0.00
2022-11-10T23:52:39.002Z,0.00
2022-11-10T23:53:46.524Z,0.00
2022-11-10T23:54:39.039Z,0.00
2022-11-10T23:55:47.759Z,0.00
2022-11-10T23:56:48.814Z,0.00
2022-11-10T23:57:46.515Z,0.00
2022-11-10T23:58:38.966Z,0.00
2022-11-10T23:59:38.939Z,0.00
